createdAt,value
2023-12-07T00:02:09.627Z,-5.00
2023-12-07T00:04:36.836Z,-4.90
2023-12-07T00:07:04.038Z,-5.00
2023-12-07T00:09:31.636Z,-4.80
2023-12-07T00:11:58.837Z,-4.70
2023-12-07T00:14:25.944Z,-4.70
2023-12-07T00:16:52.989Z,-4.60
2023-12-07T00:19:20.151Z,-4.60
2023-12-07T00:21:47.277Z,-4.50
2023-12-07T00:24:14.356Z,-4.50
2023-12-07T00:26:41.484Z,-4.40
2023-12-07T00:29:08.581Z,-4.40
2023-12-07T00:31:35.736Z,-4.20
2023-12-07T00:34:02.867Z,-4.20
2023-12-07T00:36:30.051Z,-4.30
2023-12-07T00:38:57.217Z,-4.20
2023-12-07T00:41:24.313Z,-4.20
2023-12-07T00:43:51.711Z,-4.10
2023-12-07T00:46:18.836Z,-4.10
2023-12-07T00:48:46.073Z,-4.10
2023-12-07T00:51:13.185Z,-4.10
2023-12-07T00:53:40.246Z,-4.10
2023-12-07T00:56:08.432Z,-4.00
2023-12-07T00:58:35.657Z,-4.10
2023-12-07T01:01:03.094Z,-4.00
2023-12-07T01:03:31.354Z,-3.90
2023-12-07T01:05:58.659Z,-3.90
2023-12-07T01:08:26.219Z,-3.90
2023-12-07T01:10:53.335Z,-3.90
2023-12-07T01:13:20.513Z,-3.90
2023-12-07T01:15:47.623Z,-4.00
2023-12-07T01:18:14.783Z,-3.90
2023-12-07T01:20:41.901Z,-3.90
2023-12-07T01:23:14.504Z,-3.70
2023-12-07T01:25:43.239Z,-3.70
2023-12-07T01:28:10.708Z,-3.80
2023-12-07T01:30:37.822Z,-3.80
2023-12-07T01:33:05.315Z,-3.70
2023-12-07T01:35:32.557Z,-3.80
2023-12-07T01:37:59.723Z,-3.70
2023-12-07T01:40:26.911Z,-3.80
2023-12-07T01:42:54.641Z,-3.80
2023-12-07T01:45:22.220Z,-3.80
2023-12-07T01:47:51.730Z,-3.70
2023-12-07T01:50:25.238Z,-3.80
2023-12-07T01:52:57.698Z,-3.80
2023-12-07T01:55:26.375Z,-3.80
2023-12-07T01:57:53.706Z,-3.70
2023-12-07T02:00:21.033Z,-3.70
2023-12-07T02:02:49.098Z,-3.70
2023-12-07T02:05:16.812Z,-3.70
2023-12-07T02:07:44.443Z,-3.60
2023-12-07T02:10:14.890Z,-3.60
2023-12-07T02:12:42.288Z,-3.60
2023-12-07T02:15:09.839Z,-3.60
2023-12-07T02:17:48.542Z,-3.60
2023-12-07T02:20:40.899Z,-3.60
2023-12-07T02:23:09.625Z,-3.50
2023-12-07T02:26:33.106Z,-3.50
2023-12-07T02:29:00.226Z,-3.50
2023-12-07T02:31:27.615Z,-3.50
2023-12-07T02:33:54.945Z,-3.40
2023-12-07T02:36:25.675Z,-3.40
2023-12-07T02:38:55.080Z,-3.40
2023-12-07T02:41:22.493Z,-3.40
2023-12-07T02:43:49.780Z,-3.40
2023-12-07T02:46:16.950Z,-3.50
2023-12-07T02:48:44.227Z,-3.50
2023-12-07T02:51:11.395Z,-3.60
2023-12-07T02:53:38.496Z,-3.50
2023-12-07T02:56:06.116Z,-3.50
2023-12-07T02:58:33.252Z,-3.50
2023-12-07T03:01:00.723Z,-3.50
2023-12-07T03:03:28.107Z,-3.50
2023-12-07T03:05:55.279Z,-3.40
2023-12-07T03:08:22.840Z,-3.40
2023-12-07T03:10:50.125Z,-3.40
2023-12-07T03:13:17.234Z,-3.50
2023-12-07T03:15:44.406Z,-3.40
2023-12-07T03:18:11.594Z,-3.50
2023-12-07T03:20:38.739Z,-3.40
2023-12-07T03:23:05.875Z,-3.40
2023-12-07T03:25:33.018Z,-3.40
2023-12-07T03:28:00.180Z,-3.30
2023-12-07T03:30:27.314Z,-3.30
2023-12-07T03:32:54.463Z,-3.30
2023-12-07T03:35:21.625Z,-3.30
2023-12-07T03:37:48.710Z,-3.30
2023-12-07T03:40:16.509Z,-3.30
2023-12-07T03:42:51.532Z,-3.20
2023-12-07T03:45:23.900Z,-3.30
2023-12-07T03:47:51.283Z,-3.30
2023-12-07T03:50:18.409Z,-3.30
2023-12-07T03:52:45.511Z,-3.40
2023-12-07T03:55:12.755Z,-3.40
2023-12-07T03:57:40.075Z,-3.40
2023-12-07T04:00:09.605Z,-3.30
2023-12-07T04:02:36.753Z,-3.30
2023-12-07T04:05:04.078Z,-3.40
2023-12-07T04:07:31.376Z,-3.30
2023-12-07T04:10:01.383Z,-3.30
2023-12-07T04:12:30.239Z,-3.30
2023-12-07T04:14:59.227Z,-3.30
2023-12-07T04:17:26.332Z,-3.20
2023-12-07T04:19:53.469Z,-3.20
2023-12-07T04:22:20.584Z,-3.20
2023-12-07T04:24:47.779Z,-3.30
2023-12-07T04:27:14.927Z,-3.30
2023-12-07T04:29:42.450Z,-3.20
2023-12-07T04:32:09.739Z,-3.10
2023-12-07T04:34:37.618Z,-3.10
2023-12-07T04:37:05.120Z,-3.10
2023-12-07T04:39:32.260Z,-3.00
2023-12-07T04:41:59.513Z,-3.00
2023-12-07T04:44:27.737Z,-3.00
2023-12-07T04:46:55.050Z,-3.00
2023-12-07T04:49:22.169Z,-3.00
2023-12-07T04:51:49.291Z,-3.10
2023-12-07T04:54:19.727Z,-3.00
2023-12-07T04:56:47.618Z,-2.90
2023-12-07T04:59:14.872Z,-2.90
2023-12-07T05:01:42.045Z,-2.90
2023-12-07T05:04:09.304Z,-2.90
2023-12-07T05:06:36.960Z,-2.90
2023-12-07T05:09:04.408Z,-2.90
2023-12-07T05:11:31.577Z,-2.90
2023-12-07T05:13:59.017Z,-2.90
2023-12-07T05:16:26.335Z,-3.00
2023-12-07T05:18:53.705Z,-3.00
2023-12-07T05:21:21.343Z,-3.00
2023-12-07T05:23:48.549Z,-3.00
2023-12-07T05:26:16.058Z,-3.00
2023-12-07T05:28:43.964Z,-3.00
2023-12-07T05:31:16.665Z,-3.00
2023-12-07T05:33:43.811Z,-3.00
2023-12-07T05:36:10.942Z,-3.00
2023-12-07T05:38:38.032Z,-2.90
2023-12-07T05:41:05.297Z,-2.90
2023-12-07T05:43:32.622Z,-3.00
2023-12-07T05:45:59.747Z,-2.90
2023-12-07T05:48:26.944Z,-3.00
2023-12-07T05:50:54.117Z,-3.10
2023-12-07T05:53:21.328Z,-3.10
2023-12-07T05:55:48.502Z,-3.10
2023-12-07T05:58:15.749Z,-3.00
2023-12-07T06:00:42.901Z,-3.00
2023-12-07T06:03:10.850Z,-3.00
2023-12-07T06:05:41.681Z,-3.10
2023-12-07T06:08:09.835Z,-3.20
2023-12-07T06:10:37.045Z,-3.10
2023-12-07T06:13:04.840Z,-3.10
2023-12-07T06:15:31.983Z,-3.10
2023-12-07T06:17:59.992Z,-3.10
2023-12-07T06:20:27.231Z,-3.10
2023-12-07T06:22:54.414Z,-3.10
2023-12-07T06:25:21.566Z,-3.10
2023-12-07T06:27:48.687Z,-3.20
2023-12-07T06:30:15.809Z,-3.20
2023-12-07T06:32:43.152Z,-3.20
2023-12-07T06:35:13.884Z,-3.20
2023-12-07T06:37:42.735Z,-3.00
2023-12-07T06:40:13.709Z,-2.90
2023-12-07T06:42:41.035Z,-3.00
2023-12-07T06:45:12.209Z,-2.90
2023-12-07T06:47:39.917Z,-3.00
2023-12-07T06:50:14.611Z,-3.00
2023-12-07T06:52:41.984Z,-2.90
2023-12-07T06:55:11.943Z,-3.10
2023-12-07T06:57:39.290Z,-3.00
2023-12-07T07:02:49.980Z,-3.10
2023-12-07T07:05:17.812Z,-3.00
2023-12-07T07:07:44.932Z,-3.00
2023-12-07T07:10:14.195Z,-3.00
2023-12-07T07:12:41.610Z,-2.90
2023-12-07T07:15:09.952Z,-2.90
2023-12-07T07:17:37.203Z,-3.00
2023-12-07T07:20:04.864Z,-3.00
2023-12-07T07:22:32.206Z,-3.10
2023-12-07T07:24:59.505Z,-3.00
2023-12-07T07:27:27.062Z,-3.00
2023-12-07T07:29:54.486Z,-3.00
2023-12-07T07:32:21.559Z,-3.00
2023-12-07T07:34:48.851Z,-3.00
2023-12-07T07:37:17.462Z,-3.00
2023-12-07T07:39:44.530Z,-3.00
2023-12-07T07:42:11.703Z,-3.00
2023-12-07T07:44:38.796Z,-3.00
2023-12-07T07:47:06.041Z,-3.00
2023-12-07T07:49:33.227Z,-3.00
2023-12-07T07:52:00.498Z,-3.00
2023-12-07T07:54:27.890Z,-2.90
2023-12-07T07:56:55.113Z,-2.90
2023-12-07T07:59:22.189Z,-2.90
2023-12-07T08:01:49.643Z,-2.80
2023-12-07T08:04:17.380Z,-2.80
2023-12-07T08:06:44.446Z,-2.80
2023-12-07T08:09:11.637Z,-2.90
2023-12-07T08:11:38.902Z,-2.90
2023-12-07T08:14:05.989Z,-2.80
2023-12-07T08:16:33.118Z,-2.70
2023-12-07T08:19:00.408Z,-2.80
2023-12-07T08:21:30.765Z,-2.80
2023-12-07T08:23:58.431Z,-2.80
2023-12-07T08:26:26.111Z,-2.80
2023-12-07T08:28:55.707Z,-2.80
2023-12-07T08:31:24.506Z,-2.80
2023-12-07T08:33:52.720Z,-2.90
2023-12-07T08:36:19.936Z,-2.90
2023-12-07T08:38:46.999Z,-2.80
2023-12-07T08:41:17.164Z,-2.90
2023-12-07T08:43:44.480Z,-2.90
2023-12-07T08:46:11.641Z,-2.80
2023-12-07T08:48:42.186Z,-2.80
2023-12-07T08:51:10.079Z,-2.80
2023-12-07T08:53:37.299Z,-2.80
2023-12-07T08:56:04.887Z,-2.70
2023-12-07T08:58:32.063Z,-2.70
2023-12-07T09:00:59.362Z,-2.80
2023-12-07T09:03:29.705Z,-2.80
2023-12-07T09:05:56.990Z,-2.70
2023-12-07T09:08:24.140Z,-2.70
2023-12-07T09:10:52.395Z,-2.70
2023-12-07T09:13:19.878Z,-2.60
2023-12-07T09:15:47.049Z,-2.50
2023-12-07T09:18:17.023Z,-2.60
2023-12-07T09:20:47.500Z,-2.50
2023-12-07T09:23:16.596Z,-2.50
2023-12-07T09:25:44.658Z,-2.50
2023-12-07T09:28:12.768Z,-2.50
2023-12-07T09:30:39.880Z,-2.40
2023-12-07T09:33:07.375Z,-2.40
2023-12-07T09:35:35.995Z,-2.50
2023-12-07T09:38:03.693Z,-2.50
2023-12-07T09:40:32.797Z,-2.60
2023-12-07T09:43:00.221Z,-2.60
2023-12-07T09:45:29.165Z,-2.50
2023-12-07T09:47:57.051Z,-2.50
2023-12-07T09:50:31.465Z,-2.50
2023-12-07T09:53:07.365Z,-2.40
2023-12-07T09:55:37.945Z,-2.40
2023-12-07T09:58:09.837Z,-2.50
2023-12-07T10:00:37.801Z,-2.50
2023-12-07T10:03:09.575Z,-2.50
2023-12-07T10:05:58.717Z,-2.50
2023-12-07T10:08:33.964Z,-2.50
2023-12-07T10:11:08.116Z,-2.40
2023-12-07T10:13:37.146Z,-2.50
2023-12-07T10:16:11.787Z,-2.50
2023-12-07T10:18:43.748Z,-2.50
2023-12-07T10:21:12.267Z,-2.40
2023-12-07T10:23:44.877Z,-2.40
2023-12-07T10:26:12.761Z,-2.40
2023-12-07T10:28:40.884Z,-2.40
2023-12-07T10:31:11.529Z,-2.50
2023-12-07T10:33:39.230Z,-2.40
2023-12-07T10:36:07.904Z,-2.40
2023-12-07T10:38:35.130Z,-2.40
2023-12-07T10:41:13.874Z,-2.40
2023-12-07T10:43:46.078Z,-2.40
2023-12-07T10:46:19.946Z,-2.40
2023-12-07T10:48:50.090Z,-2.40
2023-12-07T10:51:31.695Z,-2.30
2023-12-07T10:54:01.929Z,-2.30
2023-12-07T10:56:55.561Z,-2.20
2023-12-07T10:59:30.467Z,-2.20
2023-12-07T11:02:00.564Z,-2.10
2023-12-07T11:04:29.020Z,-2.10
2023-12-07T11:07:01.459Z,-2.10
2023-12-07T11:09:34.113Z,-2.00
2023-12-07T11:12:08.862Z,-1.90
2023-12-07T11:14:36.284Z,-1.80
2023-12-07T11:17:05.461Z,-1.90
2023-12-07T11:19:38.488Z,-1.80
2023-12-07T11:22:08.313Z,-1.80
2023-12-07T11:24:37.375Z,-1.80
2023-12-07T11:27:05.442Z,-1.80
2023-12-07T11:29:33.487Z,-1.90
2023-12-07T11:32:13.739Z,-1.80
2023-12-07T11:34:45.081Z,-1.80
2023-12-07T11:37:17.678Z,-1.80
2023-12-07T11:39:48.489Z,-1.80
2023-12-07T11:42:31.465Z,-1.90
2023-12-07T11:44:58.569Z,-1.90
2023-12-07T11:47:25.999Z,-2.00
2023-12-07T11:49:53.308Z,-2.00
2023-12-07T11:52:21.724Z,-2.00
2023-12-07T11:54:51.059Z,-1.90
2023-12-07T11:57:19.647Z,-2.00
2023-12-07T11:59:50.302Z,-2.00
2023-12-07T12:02:17.793Z,-2.00
2023-12-07T12:04:45.274Z,-2.10
2023-12-07T12:07:12.976Z,-2.00
2023-12-07T12:09:41.364Z,-2.10
2023-12-07T12:12:08.645Z,-2.00
2023-12-07T12:14:35.950Z,-2.00
2023-12-07T12:17:03.095Z,-2.10
2023-12-07T12:19:33.490Z,-2.00
2023-12-07T12:22:07.010Z,-2.10
2023-12-07T12:24:37.501Z,-2.00
2023-12-07T12:27:05.530Z,-2.00
2023-12-07T12:29:35.212Z,-2.00
2023-12-07T12:32:04.638Z,-2.00
2023-12-07T12:34:34.738Z,-2.00
2023-12-07T12:37:03.286Z,-2.00
2023-12-07T12:39:33.814Z,-2.10
2023-12-07T12:42:02.570Z,-2.10
2023-12-07T12:44:36.543Z,-2.20
2023-12-07T12:47:13.386Z,-2.10
2023-12-07T12:49:42.538Z,-2.10
2023-12-07T12:52:12.747Z,-2.00
2023-12-07T12:54:40.416Z,-2.00
2023-12-07T12:57:11.124Z,-2.00
2023-12-07T12:59:38.628Z,-2.10
2023-12-07T13:02:06.264Z,-2.10
2023-12-07T13:04:41.133Z,-2.10
2023-12-07T13:07:10.026Z,-2.00
2023-12-07T13:09:37.268Z,-2.00
2023-12-07T13:12:06.024Z,-2.10
2023-12-07T13:14:39.686Z,-2.10
2023-12-07T13:17:09.123Z,-2.10
2023-12-07T13:19:36.772Z,-2.00
2023-12-07T13:22:05.115Z,-2.00
2023-12-07T13:24:32.272Z,-2.10
2023-12-07T13:27:01.755Z,-2.10
2023-12-07T13:29:35.666Z,-2.10
2023-12-07T13:32:04.916Z,-2.20
2023-12-07T13:34:32.407Z,-2.10
2023-12-07T13:36:59.593Z,-2.20
2023-12-07T13:39:30.851Z,-2.20
2023-12-07T13:42:00.487Z,-2.20
2023-12-07T13:44:29.469Z,-2.20
2023-12-07T13:47:01.154Z,-2.20
2023-12-07T13:49:32.963Z,-2.20
2023-12-07T13:52:06.728Z,-2.20
2023-12-07T13:54:50.923Z,-2.20
2023-12-07T13:57:22.537Z,-2.20
2023-12-07T13:59:51.871Z,-2.20
2023-12-07T14:02:19.490Z,-2.20
2023-12-07T14:04:47.574Z,-2.30
2023-12-07T14:07:17.048Z,-2.30
2023-12-07T14:09:53.716Z,-2.30
2023-12-07T14:12:25.690Z,-2.20
2023-12-07T14:14:53.018Z,-2.20
2023-12-07T14:17:21.517Z,-2.20
2023-12-07T14:19:50.623Z,-2.20
2023-12-07T14:22:18.707Z,-2.20
2023-12-07T14:24:46.499Z,-2.10
2023-12-07T14:27:13.653Z,-2.10
2023-12-07T14:29:40.807Z,-2.10
2023-12-07T14:32:07.996Z,-2.20
2023-12-07T14:34:36.192Z,-2.20
2023-12-07T14:37:07.953Z,-2.10
2023-12-07T14:39:40.650Z,-2.10
2023-12-07T14:42:07.946Z,-2.10
2023-12-07T14:44:35.586Z,-2.00
2023-12-07T14:47:03.102Z,-2.00
2023-12-07T14:49:30.365Z,-2.10
2023-12-07T14:52:00.195Z,-2.10
2023-12-07T14:54:30.160Z,-2.00
2023-12-07T14:56:58.707Z,-1.90
2023-12-07T14:59:26.138Z,-1.90
2023-12-07T15:01:53.432Z,-2.00
2023-12-07T15:04:28.081Z,-1.90
2023-12-07T15:07:01.650Z,-1.90
2023-12-07T15:09:29.927Z,-1.90
2023-12-07T15:11:57.676Z,-1.90
2023-12-07T15:14:33.885Z,-1.90
2023-12-07T15:17:06.559Z,-1.90
2023-12-07T15:19:35.755Z,-1.90
2023-12-07T15:22:03.083Z,-1.90
2023-12-07T15:24:35.222Z,-2.00
2023-12-07T15:27:07.944Z,-2.00
2023-12-07T15:29:41.860Z,-2.00
2023-12-07T15:32:10.965Z,-2.00
2023-12-07T15:34:41.006Z,-1.90
2023-12-07T15:37:14.932Z,-1.90
2023-12-07T15:39:43.595Z,-1.90
2023-12-07T15:42:12.315Z,-1.90
2023-12-07T15:44:40.873Z,-1.90
2023-12-07T15:47:08.632Z,-1.90
2023-12-07T15:49:36.615Z,-2.00
2023-12-07T15:52:05.484Z,-2.00
2023-12-07T15:54:38.743Z,-1.90
2023-12-07T15:57:09.620Z,-2.00
2023-12-07T15:59:38.149Z,-2.00
2023-12-07T16:02:05.811Z,-2.00
2023-12-07T16:04:35.432Z,-2.00
2023-12-07T16:07:07.264Z,-2.00
2023-12-07T16:09:37.915Z,-1.90
2023-12-07T16:12:09.504Z,-1.90
2023-12-07T16:14:38.654Z,-1.80
2023-12-07T16:17:09.383Z,-1.90
2023-12-07T16:19:36.870Z,-1.80
2023-12-07T16:22:04.200Z,-1.80
2023-12-07T16:24:32.841Z,-1.90
2023-12-07T16:27:05.365Z,-1.90
2023-12-07T16:29:34.768Z,-1.90
2023-12-07T16:32:01.946Z,-2.00
2023-12-07T16:34:29.158Z,-2.00
2023-12-07T16:36:56.328Z,-2.00
2023-12-07T16:39:23.502Z,-1.90
2023-12-07T16:41:55.614Z,-1.90
2023-12-07T16:44:28.654Z,-1.90
2023-12-07T16:46:57.718Z,-1.80
2023-12-07T16:49:24.989Z,-1.90
2023-12-07T16:51:52.182Z,-1.80
2023-12-07T16:54:19.311Z,-1.80
2023-12-07T16:56:46.623Z,-1.80
2023-12-07T16:59:15.430Z,-1.80
2023-12-07T17:01:42.558Z,-1.70
2023-12-07T17:04:10.041Z,-1.70
2023-12-07T17:06:46.360Z,-1.70
2023-12-07T17:09:22.522Z,-1.70
2023-12-07T17:11:49.783Z,-1.70
2023-12-07T17:14:19.973Z,-1.70
2023-12-07T17:16:49.493Z,-1.70
2023-12-07T17:19:18.279Z,-1.60
2023-12-07T17:21:46.531Z,-1.60
2023-12-07T17:24:15.805Z,-1.70
2023-12-07T17:26:52.311Z,-1.60
2023-12-07T17:29:21.428Z,-1.70
2023-12-07T17:31:48.548Z,-1.70
2023-12-07T17:34:15.790Z,-1.80
2023-12-07T17:36:52.678Z,-1.60
2023-12-07T17:39:19.967Z,-1.60
2023-12-07T17:41:55.333Z,-1.70
2023-12-07T17:44:25.887Z,-1.70
2023-12-07T17:46:54.441Z,-1.70
2023-12-07T17:49:22.264Z,-1.70
2023-12-07T17:51:49.639Z,-1.70
2023-12-07T17:54:18.154Z,-1.70
2023-12-07T17:56:45.489Z,-1.70
2023-12-07T17:59:14.008Z,-1.70
2023-12-07T18:01:41.306Z,-1.60
2023-12-07T18:04:08.613Z,-1.60
2023-12-07T18:06:35.970Z,-1.60
2023-12-07T18:09:03.542Z,-1.60
2023-12-07T18:11:31.768Z,-1.60
2023-12-07T18:13:58.840Z,-1.70
2023-12-07T18:16:26.036Z,-1.70
2023-12-07T18:18:53.468Z,-1.70
2023-12-07T18:21:20.773Z,-1.60
2023-12-07T18:23:47.938Z,-1.70
2023-12-07T18:26:15.587Z,-1.70
2023-12-07T18:28:43.006Z,-1.60
2023-12-07T18:31:10.195Z,-1.70
2023-12-07T18:33:37.437Z,-1.60
2023-12-07T18:36:05.148Z,-1.70
2023-12-07T18:38:32.346Z,-1.60
2023-12-07T18:40:59.501Z,-1.60
2023-12-07T18:43:26.833Z,-1.60
2023-12-07T18:45:58.166Z,-1.60
2023-12-07T18:48:25.295Z,-1.60
2023-12-07T18:50:52.559Z,-1.80
2023-12-07T18:53:19.707Z,-1.70
2023-12-07T18:55:46.788Z,-1.70
2023-12-07T18:58:14.039Z,-1.80
2023-12-07T19:00:41.278Z,-1.70
2023-12-07T19:03:08.433Z,-1.80
2023-12-07T19:05:35.658Z,-1.70
2023-12-07T19:08:03.576Z,-1.80
2023-12-07T19:10:40.633Z,-1.70
2023-12-07T19:13:07.707Z,-1.70
2023-12-07T19:15:35.549Z,-1.70
2023-12-07T19:18:02.906Z,-1.70
2023-12-07T19:20:30.076Z,-1.80
2023-12-07T19:22:59.085Z,-1.80
2023-12-07T19:25:28.511Z,-1.80
2023-12-07T19:27:56.082Z,-1.80
2023-12-07T19:30:23.290Z,-1.80
2023-12-07T19:32:50.454Z,-1.80
2023-12-07T19:35:17.671Z,-1.90
2023-12-07T19:37:44.824Z,-1.90
2023-12-07T19:40:12.488Z,-1.90
2023-12-07T19:42:41.567Z,-1.90
2023-12-07T19:45:09.311Z,-2.00
2023-12-07T19:47:36.509Z,-2.00
2023-12-07T19:50:04.598Z,-2.00
2023-12-07T19:52:31.705Z,-2.00
2023-12-07T19:54:58.992Z,-2.00
2023-12-07T19:57:26.679Z,-2.10
2023-12-07T19:59:53.904Z,-2.00
2023-12-07T20:02:21.052Z,-2.10
2023-12-07T20:04:48.167Z,-2.10
2023-12-07T20:07:15.307Z,-2.10
2023-12-07T20:09:42.506Z,-2.20
2023-12-07T20:12:09.803Z,-2.20
2023-12-07T20:14:37.102Z,-2.20
2023-12-07T20:17:04.288Z,-2.30
2023-12-07T20:19:33.201Z,-2.30
2023-12-07T20:22:00.455Z,-2.20
2023-12-07T20:24:27.595Z,-2.20
2023-12-07T20:26:54.971Z,-2.10
2023-12-07T20:29:33.033Z,-2.20
2023-12-07T20:32:00.883Z,-2.20
2023-12-07T20:34:32.197Z,-2.30
2023-12-07T20:37:02.491Z,-2.30
2023-12-07T20:39:32.630Z,-2.30
2023-12-07T20:41:59.908Z,-2.40
2023-12-07T20:44:33.198Z,-2.40
2023-12-07T20:47:00.274Z,-2.40
2023-12-07T20:49:28.090Z,-2.30
2023-12-07T20:51:56.492Z,-2.40
2023-12-07T20:54:48.297Z,-2.30
2023-12-07T20:57:15.739Z,-2.40
2023-12-07T20:59:42.955Z,-2.50
2023-12-07T21:02:10.107Z,-2.40
2023-12-07T21:04:39.670Z,-2.40
2023-12-07T21:07:07.251Z,-2.40
2023-12-07T21:09:34.399Z,-2.40
2023-12-07T21:12:01.674Z,-2.40
2023-12-07T21:14:30.889Z,-2.40
2023-12-07T21:17:02.858Z,-2.40
2023-12-07T21:19:31.561Z,-2.50
2023-12-07T21:21:59.329Z,-2.50
2023-12-07T21:24:26.501Z,-2.50
2023-12-07T21:26:53.589Z,-2.50
2023-12-07T21:29:20.670Z,-2.40
2023-12-07T21:31:48.232Z,-2.50
2023-12-07T21:34:15.442Z,-2.50
2023-12-07T21:36:44.292Z,-2.50
2023-12-07T21:39:15.844Z,-2.60
2023-12-07T21:41:50.306Z,-2.60
2023-12-07T21:44:17.526Z,-2.60
2023-12-07T21:46:45.449Z,-2.70
2023-12-07T21:49:13.240Z,-2.70
2023-12-07T21:51:40.465Z,-2.70
2023-12-07T21:54:07.560Z,-2.80
2023-12-07T21:56:34.749Z,-2.80
2023-12-07T21:59:01.908Z,-2.80
2023-12-07T22:01:38.038Z,-2.90
2023-12-07T22:04:05.307Z,-2.80
2023-12-07T22:06:32.389Z,-2.80
2023-12-07T22:08:59.457Z,-2.90
2023-12-07T22:11:27.119Z,-3.00
2023-12-07T22:13:54.469Z,-3.00
2023-12-07T22:16:21.609Z,-3.00
2023-12-07T22:18:48.888Z,-3.00
2023-12-07T22:21:16.080Z,-3.10
2023-12-07T22:23:46.362Z,-3.10
2023-12-07T22:26:15.872Z,-3.10
2023-12-07T22:28:42.929Z,-3.10
2023-12-07T22:31:10.314Z,-3.10
2023-12-07T22:33:39.715Z,-3.10
2023-12-07T22:36:07.592Z,-3.10
2023-12-07T22:38:35.069Z,-3.10
2023-12-07T22:41:02.166Z,-3.10
2023-12-07T22:43:29.272Z,-3.00
2023-12-07T22:45:56.383Z,-3.00
2023-12-07T22:48:26.097Z,-3.10
2023-12-07T22:50:53.258Z,-3.00
2023-12-07T22:53:20.346Z,-3.10
2023-12-07T22:55:47.453Z,-3.20
2023-12-07T22:58:14.797Z,-3.10
2023-12-07T23:00:41.999Z,-3.10
2023-12-07T23:03:09.112Z,-3.10
2023-12-07T23:05:36.301Z,-3.20
2023-12-07T23:08:03.510Z,-3.20
2023-12-07T23:10:30.626Z,-3.10
2023-12-07T23:12:57.769Z,-3.20
2023-12-07T23:15:24.947Z,-3.20
2023-12-07T23:17:52.151Z,-3.20
2023-12-07T23:20:19.828Z,-3.30
2023-12-07T23:22:46.905Z,-3.20
2023-12-07T23:25:14.517Z,-3.10
2023-12-07T23:27:41.587Z,-3.10
2023-12-07T23:30:10.080Z,-3.20
2023-12-07T23:32:37.307Z,-3.20
2023-12-07T23:35:04.732Z,-3.10
2023-12-07T23:37:31.810Z,-3.10
2023-12-07T23:39:58.918Z,-3.20
2023-12-07T23:42:26.860Z,-3.20
2023-12-07T23:44:53.968Z,-3.20
2023-12-07T23:47:21.310Z,-3.30
2023-12-07T23:49:48.568Z,-3.30
2023-12-07T23:52:15.712Z,-3.30
2023-12-07T23:54:42.823Z,-3.30
2023-12-07T23:57:09.924Z,-3.30
2023-12-07T23:59:37.119Z,-3.40
